Time;durP1;ratioP1;P1;durP2;ratioP2;P2;SDS_P1;SDS_P2;PMS_P1;PMS_P2;Temp;Humidity;BMP_temperature;BMP_pressure;BME280_temperature;BME280_humidity;BME280_pressure;Samples;Min_cycle;Max_cycle;Signal;HPM_P1;HPM_P2
2021/07/21 00:01:15;;;;;;;7.70;6.28;;;23.60;83.00;;;;;;5022524;28;20071;-67
2021/07/21 00:03:40;;;;;;;7.72;6.35;;;23.60;82.90;;;;;;5040783;28;20028;-67
2021/07/21 00:06:06;;;;;;;7.95;6.53;;;23.60;83.10;;;;;;5031256;28;20029;-67
2021/07/21 00:08:32;;;;;;;7.07;5.68;;;23.60;83.40;;;;;;5044682;28;20035;-67
2021/07/21 00:13:41;;;;;;;8.60;6.72;;;23.70;83.80;;;;;;5023854;28;20036;-67
2021/07/21 00:21:09;;;;;;;10.13;7.85;;;23.60;83.50;;;;;;5035758;28;20330;-67
2021/07/21 00:23:35;;;;;;;11.27;7.88;;;23.60;83.30;;;;;;5040806;28;20025;-67
2021/07/21 00:26:02;;;;;;;11.30;8.75;;;23.50;83.00;;;;;;5046319;28;20013;-67
2021/07/21 00:28:28;;;;;;;12.50;9.60;;;23.50;83.50;;;;;;5033352;28;20474;-67
2021/07/21 00:30:54;;;;;;;11.70;9.00;;;23.40;82.80;;;;;;5050651;28;20075;-67
2021/07/21 00:33:20;;;;;;;14.15;10.02;;;23.40;83.00;;;;;;5022888;28;20017;-67
2021/07/21 00:35:46;;;;;;;16.73;10.75;;;23.30;82.90;;;;;;5038909;28;20437;-67
2021/07/21 00:38:12;;;;;;;11.60;10.02;;;23.30;83.10;;;;;;5037030;28;20029;-67
2021/07/21 00:40:39;;;;;;;11.65;9.55;;;23.20;83.00;;;;;;5051746;28;20039;-67
2021/07/21 00:43:05;;;;;;;11.23;9.90;;;23.20;83.10;;;;;;5021913;28;20492;-66
2021/07/21 00:45:30;;;;;;;12.02;9.18;;;23.10;82.90;;;;;;5041478;28;20025;-66
2021/07/21 00:47:56;;;;;;;10.65;9.27;;;23.10;83.10;;;;;;5027239;28;20021;-66
2021/07/21 00:50:22;;;;;;;10.93;8.70;;;23.00;83.00;;;;;;5037999;28;20481;-66
2021/07/21 00:52:50;;;;;;;11.35;9.32;;;23.00;83.20;;;;;;5030397;28;20378;-67
2021/07/21 00:55:17;;;;;;;11.02;9.07;;;23.00;83.30;;;;;;5033205;28;20021;-67
2021/07/21 00:57:42;;;;;;;9.75;8.73;;;22.90;83.30;;;;;;5039445;28;20112;-67
2021/07/21 01:00:15;;;;;;;9.60;8.27;;;22.90;83.20;;;;;;5039519;28;20124;-67
2021/07/21 01:02:42;;;;;;;10.02;7.90;;;22.90;83.10;;;;;;5028330;28;20026;-67
2021/07/21 01:05:11;;;;;;;9.88;8.38;;;22.80;83.10;;;;;;5036305;28;20052;-66
2021/07/21 01:07:43;;;;;;;10.50;8.45;;;22.80;83.20;;;;;;5047007;28;20025;-66
2021/07/21 01:10:09;;;;;;;11.80;8.25;;;22.80;83.10;;;;;;5022115;28;20052;-67
2021/07/21 01:12:53;;;;;;;11.98;8.27;;;22.70;83.30;;;;;;5029208;28;20026;-67
2021/07/21 01:15:31;;;;;;;11.95;7.82;;;22.70;83.30;;;;;;5037215;28;20108;-67
2021/07/21 01:18:02;;;;;;;10.95;8.18;;;22.70;83.30;;;;;;5042546;28;20018;-67
2021/07/21 01:20:50;;;;;;;11.48;8.15;;;22.70;83.50;;;;;;5021366;28;20536;-67
2021/07/21 01:23:47;;;;;;;10.63;8.00;;;22.70;83.30;;;;;;5021453;28;20432;-67
2021/07/21 01:26:17;;;;;;;11.23;8.00;;;22.70;83.50;;;;;;5038753;28;20032;-67
2021/07/21 01:28:45;;;;;;;9.20;8.00;;;22.70;83.80;;;;;;5038692;28;20384;-67
2021/07/21 01:31:22;;;;;;;10.15;8.00;;;22.70;83.80;;;;;;5045694;28;20021;-67
2021/07/21 01:33:48;;;;;;;10.40;8.80;;;22.70;83.80;;;;;;5043284;28;20097;-67
2021/07/21 01:36:21;;;;;;;11.20;8.63;;;22.70;83.80;;;;;;5031984;28;20025;-67
2021/07/21 01:38:51;;;;;;;9.52;7.70;;;22.70;83.90;;;;;;5046529;28;20501;-67
2021/07/21 01:41:21;;;;;;;10.75;8.40;;;22.70;83.80;;;;;;5029781;28;20047;-67
2021/07/21 01:43:50;;;;;;;;;;;22.70;83.60;;;;;;5038052;28;20109;-67
2021/07/21 01:46:21;;;;;;;9.15;7.68;;;22.70;83.50;;;;;;5025032;28;19909;-67
2021/07/21 01:48:48;;;;;;;10.73;7.13;;;22.70;84.00;;;;;;5044672;28;20025;-67
2021/07/21 01:51:14;;;;;;;9.80;7.90;;;22.70;84.10;;;;;;5031809;28;20056;-67
2021/07/21 01:53:40;;;;;;;11.50;8.05;;;22.70;84.10;;;;;;5037010;28;20082;-67
2021/07/21 01:56:07;;;;;;;10.10;7.68;;;22.70;84.10;;;;;;5036697;28;20048;-67
2021/07/21 01:58:35;;;;;;;9.80;7.15;;;22.70;84.30;;;;;;5046156;28;20064;-67
2021/07/21 02:01:03;;;;;;;8.23;6.30;;;22.70;84.40;;;;;;5048667;28;20029;-67
2021/07/21 02:03:30;;;;;;;7.22;5.40;;;22.80;84.60;;;;;;5018280;28;20029;-67
2021/07/21 02:06:00;;;;;;;7.15;5.55;;;22.80;84.70;;;;;;5021272;28;20028;-66
2021/07/21 02:08:27;;;;;;;5.90;4.43;;;22.80;84.80;;;;;;5039764;28;20402;-66
2021/07/21 02:10:56;;;;;;;4.63;3.80;;;22.80;84.90;;;;;;5038192;28;20599;-66
2021/07/21 02:13:25;;;;;;;6.28;4.25;;;22.90;85.20;;;;;;5047420;28;20025;-66
2021/07/21 02:15:51;;;;;;;4.70;4.07;;;22.90;85.20;;;;;;5030086;28;20021;-67
2021/07/21 02:18:19;;;;;;;5.68;4.18;;;22.90;85.20;;;;;;5040935;28;20088;-67
2021/07/21 02:20:50;;;;;;;5.32;4.25;;;22.90;85.20;;;;;;5048477;28;20048;-67
2021/07/21 02:23:18;;;;;;;5.55;4.18;;;22.90;85.10;;;;;;5020706;28;20543;-67
2021/07/21 02:25:45;;;;;;;4.40;3.83;;;22.90;84.90;;;;;;5046748;28;20059;-67
2021/07/21 02:28:11;;;;;;;5.32;4.63;;;22.90;84.80;;;;;;5038746;28;20492;-67
2021/07/21 02:30:37;;;;;;;5.47;3.78;;;22.90;84.60;;;;;;5037887;28;20022;-67
2021/07/21 02:33:05;;;;;;;5.45;4.18;;;22.90;84.60;;;;;;5034225;28;20029;-67
2021/07/21 02:35:32;;;;;;;5.10;4.20;;;22.90;84.60;;;;;;5048278;28;20028;-67
2021/07/21 02:37:59;;;;;;;8.23;4.63;;;22.90;84.50;;;;;;5041671;28;20519;-66
2021/07/21 02:40:25;;;;;;;5.72;4.25;;;22.90;84.30;;;;;;5051089;28;20056;-66
2021/07/21 02:42:52;;;;;;;5.90;4.28;;;22.90;84.40;;;;;;5020088;28;20045;-66
2021/07/21 02:45:17;;;;;;;6.72;5.13;;;22.90;84.20;;;;;;5042531;28;20066;-67
2021/07/21 02:47:43;;;;;;;6.63;5.32;;;22.90;84.30;;;;;;5043824;28;20546;-67
2021/07/21 02:50:11;;;;;;;6.45;5.00;;;22.90;84.30;;;;;;5032699;28;20100;-66
2021/07/21 02:52:45;;;;;;;6.45;5.05;;;22.90;84.00;;;;;;5028348;28;20506;-66
2021/07/21 02:55:13;;;;;;;6.63;5.30;;;22.90;83.90;;;;;;5039409;28;20014;-67
2021/07/21 02:57:54;;;;;;;6.82;5.05;;;22.80;84.10;;;;;;5037130;28;20421;-67
2021/07/21 03:00:22;;;;;;;6.90;4.85;;;22.90;84.10;;;;;;5036307;28;20037;-67
2021/07/21 03:02:51;;;;;;;6.93;4.90;;;22.90;84.20;;;;;;5030439;28;20034;-66
2021/07/21 03:05:19;;;;;;;4.93;4.28;;;22.90;84.30;;;;;;5019302;28;20100;-66
2021/07/21 03:07:48;;;;;;;7.65;4.60;;;22.90;84.00;;;;;;5025897;28;20031;-66
2021/07/21 03:10:15;;;;;;;6.05;4.85;;;22.90;84.20;;;;;;5047944;28;20063;-66
2021/07/21 03:12:46;;;;;;;4.63;3.80;;;22.90;84.10;;;;;;5033630;28;20416;-66
2021/07/21 03:15:13;;;;;;;3.95;3.20;;;23.00;83.50;;;;;;5044131;28;20013;-66
2021/07/21 03:17:40;;;;;;;4.30;3.53;;;23.00;83.30;;;;;;5036301;28;20039;-66
2021/07/21 03:20:08;;;;;;;5.50;3.63;;;23.00;83.10;;;;;;5031070;28;20076;-67
2021/07/21 03:22:37;;;;;;;4.55;3.63;;;23.00;83.30;;;;;;5044827;28;20373;-67
2021/07/21 03:25:07;;;;;;;4.30;3.65;;;23.00;83.00;;;;;;5037244;28;20053;-66
2021/07/21 03:27:35;;;;;;;5.35;3.80;;;23.10;83.30;;;;;;5050115;28;20423;-66
2021/07/21 03:30:03;;;;;;;6.35;3.95;;;23.10;83.10;;;;;;5046023;28;20112;-66
2021/07/21 03:32:29;;;;;;;5.13;4.32;;;23.00;83.40;;;;;;5042123;28;20069;-66
2021/07/21 03:34:55;;;;;;;4.32;3.78;;;23.00;83.70;;;;;;5045226;28;20051;-66
2021/07/21 03:37:22;;;;;;;4.07;3.28;;;23.10;83.80;;;;;;5032132;28;20108;-66
2021/07/21 03:39:57;;;;;;;5.47;4.05;;;23.10;83.70;;;;;;5034001;28;20052;-66
2021/07/21 03:42:28;;;;;;;3.80;3.40;;;23.10;83.60;;;;;;5048942;28;20500;-66
2021/07/21 03:44:57;;;;;;;4.93;3.58;;;23.10;83.90;;;;;;5039205;28;20079;-66
2021/07/21 03:47:24;;;;;;;4.78;3.83;;;23.10;83.80;;;;;;5040368;28;20086;-66
2021/07/21 03:49:50;;;;;;;4.40;3.70;;;23.10;84.10;;;;;;5046745;28;20064;-66
2021/07/21 03:52:17;;;;;;;5.70;4.10;;;23.10;84.00;;;;;;5036328;28;20029;-66
2021/07/21 03:54:43;;;;;;;5.60;4.50;;;23.20;84.20;;;;;;5039538;28;20030;-66
2021/07/21 03:57:10;;;;;;;4.95;4.40;;;23.20;84.10;;;;;;5033210;28;20048;-66
2021/07/21 03:59:37;;;;;;;6.28;4.40;;;23.20;84.00;;;;;;5040179;28;20021;-66
2021/07/21 04:02:05;;;;;;;4.60;3.70;;;23.30;84.10;;;;;;5034886;28;20021;-66
2021/07/21 04:04:31;;;;;;;5.50;3.97;;;23.30;83.80;;;;;;5029770;28;20021;-66
2021/07/21 04:06:57;;;;;;;4.95;3.83;;;23.30;83.60;;;;;;5021889;28;20042;-66
2021/07/21 04:09:25;;;;;;;6.13;4.13;;;23.30;83.40;;;;;;5047050;28;20568;-66
2021/07/21 04:11:55;;;;;;;5.93;3.95;;;23.30;83.50;;;;;;5043758;28;20096;-67
2021/07/21 04:14:22;;;;;;;4.65;4.05;;;23.30;83.20;;;;;;5042710;28;20014;-67
2021/07/21 04:16:50;;;;;;;4.97;3.60;;;23.40;83.20;;;;;;5036007;28;20037;-66
2021/07/21 04:19:17;;;;;;;5.75;4.28;;;23.40;83.20;;;;;;5028532;28;20116;-66
2021/07/21 04:21:48;;;;;;;4.97;3.97;;;23.40;83.10;;;;;;5039693;28;20045;-66
2021/07/21 04:24:15;;;;;;;4.80;4.25;;;23.40;83.00;;;;;;5038238;28;20036;-66
2021/07/21 04:26:42;;;;;;;5.03;4.38;;;23.40;82.80;;;;;;5033046;28;20038;-66
2021/07/21 04:29:13;;;;;;;6.05;4.18;;;23.50;82.90;;;;;;5035034;28;20025;-66
2021/07/21 04:31:39;;;;;;;5.82;4.72;;;23.50;82.60;;;;;;5046604;28;20021;-67
2021/07/21 04:34:06;;;;;;;7.47;5.22;;;23.60;82.60;;;;;;5043440;28;20116;-66
2021/07/21 04:36:33;;;;;;;5.22;4.22;;;23.60;82.10;;;;;;5034766;28;20414;-66
2021/07/21 04:39:00;;;;;;;5.63;4.18;;;23.60;82.10;;;;;;5050591;28;20052;-66
2021/07/21 04:41:26;;;;;;;5.53;4.55;;;23.70;82.10;;;;;;5030976;28;20030;-66
2021/07/21 04:43:51;;;;;;;5.07;4.38;;;23.70;82.10;;;;;;5033438;28;20021;-66
2021/07/21 04:46:18;;;;;;;6.10;4.80;;;23.80;82.10;;;;;;5037602;28;20052;-66
2021/07/21 04:48:45;;;;;;;5.18;4.28;;;23.80;81.50;;;;;;5045683;28;20032;-66
2021/07/21 04:51:12;;;;;;;6.53;4.50;;;23.90;81.50;;;;;;5033324;28;20041;-66
2021/07/21 04:53:38;;;;;;;6.38;4.47;;;24.00;81.40;;;;;;5032248;28;20100;-66
2021/07/21 04:56:04;;;;;;;6.20;5.38;;;24.00;81.50;;;;;;5043641;28;20047;-68
2021/07/21 04:58:30;;;;;;;5.20;4.60;;;24.00;81.30;;;;;;5036731;28;20029;-66
2021/07/21 05:00:56;;;;;;;5.10;4.57;;;24.00;81.30;;;;;;5033228;28;20037;-66
2021/07/21 05:03:22;;;;;;;6.68;5.10;;;24.10;81.00;;;;;;5024778;28;20072;-53
2021/07/21 05:05:48;;;;;;;5.75;4.55;;;24.10;80.50;;;;;;5037046;28;20029;-56
2021/07/21 05:08:14;;;;;;;6.25;5.30;;;24.10;80.40;;;;;;5032739;28;20048;-52
2021/07/21 05:10:40;;;;;;;6.57;5.07;;;24.10;80.40;;;;;;5026932;28;20030;-52
2021/07/21 05:13:06;;;;;;;5.40;4.90;;;24.00;80.50;;;;;;5034563;28;20029;-55
2021/07/21 05:15:34;;;;;;;6.53;5.43;;;24.00;80.50;;;;;;5034260;28;20022;-57
2021/07/21 05:18:01;;;;;;;6.93;5.22;;;24.10;80.90;;;;;;5033283;28;20021;-57
2021/07/21 05:20:26;;;;;;;6.30;5.20;;;24.10;81.00;;;;;;5037023;28;20049;-56
2021/07/21 05:22:52;;;;;;;7.35;5.47;;;24.10;80.80;;;;;;5033168;28;20446;-56
2021/07/21 05:25:18;;;;;;;6.75;5.93;;;24.10;80.50;;;;;;5025963;28;20767;-55
2021/07/21 05:27:45;;;;;;;6.88;5.93;;;24.20;80.50;;;;;;5026363;28;20029;-56
2021/07/21 05:30:15;;;;;;;7.70;6.45;;;24.20;80.80;;;;;;5035374;28;20032;-53
2021/07/21 05:32:40;;;;;;;8.50;7.07;;;24.60;81.00;;;;;;5030487;28;20022;-56
2021/07/21 05:35:07;;;;;;;7.00;5.88;;;25.10;79.70;;;;;;5033181;28;20080;-55
2021/07/21 05:37:33;;;;;;;6.70;6.00;;;25.40;78.50;;;;;;5032340;28;20037;-54
2021/07/21 05:39:59;;;;;;;8.05;6.50;;;25.70;77.50;;;;;;5031517;28;20053;-57
2021/07/21 05:42:24;;;;;;;8.68;6.57;;;25.80;76.70;;;;;;5027688;28;20029;-57
2021/07/21 05:44:51;;;;;;;10.70;6.82;;;25.90;76.50;;;;;;5028502;28;20035;-57
2021/07/21 05:47:17;;;;;;;8.40;7.47;;;25.90;76.00;;;;;;5026324;28;21838;-55
2021/07/21 05:49:42;;;;;;;10.50;8.30;;;25.90;76.00;;;;;;5029954;28;20093;-57
2021/07/21 05:52:08;;;;;;;9.73;7.55;;;25.90;76.00;;;;;;5025905;28;20067;-56
2021/07/21 05:54:37;;;;;;;8.98;7.60;;;25.90;75.90;;;;;;5026375;28;20029;-57
2021/07/21 05:57:06;;;;;;;11.80;8.85;;;25.90;76.20;;;;;;5023360;28;20355;-55
2021/07/21 05:59:34;;;;;;;10.68;7.93;;;25.90;75.60;;;;;;5024872;28;20044;-56
2021/07/21 06:02:00;;;;;;;10.15;8.32;;;25.80;75.90;;;;;;5016435;28;20037;-56
2021/07/21 06:04:26;;;;;;;9.82;8.23;;;25.90;75.50;;;;;;5023523;28;20029;-57
2021/07/21 06:06:52;;;;;;;13.50;8.65;;;25.90;75.50;;;;;;5019773;28;20033;-54
2021/07/21 06:09:18;;;;;;;13.60;9.52;;;25.90;75.10;;;;;;5018607;28;20044;-53
2021/07/21 06:11:43;;;;;;;12.02;9.65;;;25.90;74.90;;;;;;5020578;28;20802;-56
2021/07/21 06:14:10;;;;;;;11.73;9.68;;;25.90;75.20;;;;;;5026387;28;20052;-57
2021/07/21 06:16:36;;;;;;;11.90;9.80;;;26.00;75.30;;;;;;5019723;28;20355;-57
2021/07/21 06:19:02;;;;;;;11.50;10.30;;;26.00;74.90;;;;;;5017128;28;20055;-56
2021/07/21 06:21:28;;;;;;;14.32;11.30;;;26.00;74.30;;;;;;5018552;28;20057;-56
2021/07/21 06:23:54;;;;;;;13.02;10.30;;;26.00;73.70;;;;;;5019505;28;21064;-56
2021/07/21 06:26:19;;;;;;;12.98;11.05;;;26.10;74.00;;;;;;5016961;28;20044;-55
2021/07/21 06:28:45;;;;;;;11.10;9.93;;;26.10;73.70;;;;;;5019061;28;20397;-56
2021/07/21 06:31:11;;;;;;;11.60;9.13;;;26.10;73.70;;;;;;5021733;28;20385;-56
2021/07/21 06:33:37;;;;;;;13.55;10.55;;;26.20;74.00;;;;;;5017523;28;20036;-56
2021/07/21 06:36:03;;;;;;;13.50;11.02;;;26.20;73.80;;;;;;5016697;28;20393;-56
2021/07/21 06:38:29;;;;;;;12.43;10.20;;;26.20;73.70;;;;;;5019484;28;20115;-57
2021/07/21 06:40:55;;;;;;;13.38;10.95;;;26.20;73.80;;;;;;5018701;28;20454;-56
2021/07/21 06:43:22;;;;;;;12.10;10.52;;;26.20;73.70;;;;;;5020803;28;20179;-57
2021/07/21 06:45:48;;;;;;;12.18;10.88;;;26.30;73.60;;;;;;5023941;28;20025;-57
2021/07/21 06:48:13;;;;;;;10.63;9.52;;;26.30;72.90;;;;;;5016510;28;20065;-57
2021/07/21 06:50:39;;;;;;;11.63;10.05;;;26.30;72.50;;;;;;5018510;28;20159;-58
2021/07/21 06:53:05;;;;;;;13.00;10.10;;;26.30;72.70;;;;;;5014491;28;20045;-57
2021/07/21 06:55:30;;;;;;;13.07;9.82;;;26.30;72.70;;;;;;5017818;28;20028;-57
2021/07/21 06:57:56;;;;;;;10.88;9.30;;;26.30;73.10;;;;;;5021270;28;20057;-57
2021/07/21 07:00:22;;;;;;;11.90;9.82;;;26.30;73.10;;;;;;5022535;28;20563;-56
2021/07/21 07:02:47;;;;;;;13.75;10.13;;;26.30;73.40;;;;;;5017925;28;20068;-57
2021/07/21 07:05:13;;;;;;;12.07;10.18;;;26.20;73.30;;;;;;5017731;28;20590;-58
2021/07/21 07:07:39;;;;;;;12.27;9.95;;;26.30;73.00;;;;;;5013679;28;20124;-55
2021/07/21 07:10:06;;;;;;;11.98;10.27;;;26.20;72.50;;;;;;5015540;28;20030;-56
2021/07/21 07:12:31;;;;;;;12.07;9.60;;;26.10;72.60;;;;;;5021737;28;21799;-56
2021/07/21 07:14:57;;;;;;;13.60;10.23;;;26.10;73.10;;;;;;5021443;28;20022;-56
2021/07/21 07:17:25;;;;;;;13.00;10.70;;;26.00;73.10;;;;;;5016189;28;20025;-57
2021/07/21 07:19:52;;;;;;;12.88;10.80;;;25.90;73.20;;;;;;5019903;28;20041;-57
2021/07/21 07:22:18;;;;;;;14.65;11.65;;;25.90;73.50;;;;;;5016013;28;20038;-57
2021/07/21 07:24:44;;;;;;;13.13;10.98;;;25.80;73.50;;;;;;5019735;28;20048;-56
2021/07/21 07:27:09;;;;;;;13.23;10.57;;;25.80;73.80;;;;;;5016150;28;20036;-57
2021/07/21 07:29:37;;;;;;;13.20;10.43;;;25.70;74.00;;;;;;5013825;28;20028;-57
2021/07/21 07:32:02;;;;;;;12.52;10.57;;;25.70;74.30;;;;;;5017058;28;20041;-53
2021/07/21 07:34:28;;;;;;;12.95;10.90;;;25.70;74.10;;;;;;5010157;28;20056;-57
2021/07/21 07:36:54;;;;;;;13.15;10.52;;;25.70;74.10;;;;;;5019313;28;20204;-57
2021/07/21 07:39:21;;;;;;;12.43;10.95;;;25.70;74.40;;;;;;5016419;28;20450;-57
2021/07/21 07:41:47;;;;;;;13.02;10.27;;;25.70;74.30;;;;;;5014536;28;20095;-57
2021/07/21 07:44:13;;;;;;;12.18;10.88;;;25.80;74.30;;;;;;5012181;28;20470;-57
2021/07/21 07:46:39;;;;;;;11.55;10.35;;;25.80;73.80;;;;;;5012275;28;20029;-57
2021/07/21 07:49:06;;;;;;;11.50;10.15;;;25.80;74.00;;;;;;5017479;28;20061;-55
2021/07/21 07:51:33;;;;;;;11.80;10.60;;;25.90;73.60;;;;;;5010108;28;20033;-56
2021/07/21 07:54:01;;;;;;;13.95;11.07;;;25.90;73.80;;;;;;5015697;28;20014;-57
2021/07/21 07:56:28;;;;;;;14.05;10.85;;;26.00;74.10;;;;;;5018334;28;20018;-57
2021/07/21 07:58:54;;;;;;;12.65;10.23;;;26.00;73.90;;;;;;5015374;28;20033;-55
2021/07/21 08:01:20;;;;;;;12.07;10.82;;;26.00;73.80;;;;;;5020679;28;20112;-53
2021/07/21 08:03:46;;;;;;;12.43;11.13;;;26.10;73.60;;;;;;5015540;28;20029;-54
2021/07/21 08:06:12;;;;;;;12.88;10.70;;;26.10;73.80;;;;;;5020204;28;20704;-55
2021/07/21 08:08:38;;;;;;;12.98;11.00;;;26.10;73.80;;;;;;5018525;28;20042;-56
2021/07/21 08:11:05;;;;;;;14.02;10.93;;;26.10;73.50;;;;;;5015305;28;20139;-56
2021/07/21 08:13:32;;;;;;;12.82;10.85;;;26.10;73.50;;;;;;5019060;28;20029;-55
2021/07/21 08:15:58;;;;;;;11.98;10.48;;;26.20;73.50;;;;;;5024810;28;20026;-54
2021/07/21 08:18:23;;;;;;;12.68;10.38;;;26.20;73.70;;;;;;5022377;28;20117;-56
2021/07/21 08:20:50;;;;;;;12.02;10.02;;;26.30;73.70;;;;;;5015245;28;20666;-56
2021/07/21 08:23:15;;;;;;;11.63;10.43;;;26.40;73.60;;;;;;5009872;28;20037;-57
2021/07/21 08:25:44;;;;;;;11.82;10.50;;;26.50;73.30;;;;;;5020230;28;20029;-56
2021/07/21 08:28:16;;;;;;;13.68;10.98;;;26.50;73.10;;;;;;5019224;28;20037;-56
2021/07/21 08:30:43;;;;;;;11.70;10.38;;;26.60;73.20;;;;;;5018408;28;20025;-57
2021/07/21 08:33:09;;;;;;;13.15;10.95;;;26.70;73.00;;;;;;5015649;28;20063;-57
2021/07/21 08:35:34;;;;;;;13.00;11.38;;;26.70;73.10;;;;;;5014316;28;20062;-53
2021/07/21 08:38:02;;;;;;;12.52;11.18;;;26.80;73.00;;;;;;5020560;28;20029;-57
2021/07/21 08:40:30;;;;;;;12.77;11.43;;;26.90;72.90;;;;;;5019475;28;20041;-56
2021/07/21 08:42:56;;;;;;;13.93;11.05;;;27.00;72.80;;;;;;5025340;28;20056;-57
2021/07/21 08:45:23;;;;;;;13.20;10.93;;;27.00;72.50;;;;;;5022996;28;20104;-56
2021/07/21 08:47:48;;;;;;;11.70;10.13;;;27.10;72.30;;;;;;5020409;28;20041;-57
2021/07/21 08:50:15;;;;;;;13.48;10.90;;;27.10;72.30;;;;;;5024786;28;20532;-56
2021/07/21 08:52:41;;;;;;;13.55;11.15;;;27.20;71.90;;;;;;5022839;28;20052;-56
2021/07/21 08:55:10;;;;;;;11.82;10.07;;;27.20;71.90;;;;;;5020716;28;20086;-57
2021/07/21 08:57:36;;;;;;;13.18;9.63;;;27.20;71.50;;;;;;5017087;28;20040;-57
2021/07/21 09:00:14;;;;;;;12.15;9.85;;;27.30;70.90;;;;;;5013373;28;20048;-57
2021/07/21 09:02:41;;;;;;;12.73;10.20;;;27.30;70.60;;;;;;5019180;28;20161;-57
2021/07/21 09:05:09;;;;;;;11.63;9.57;;;27.30;70.40;;;;;;5022489;28;20127;-56
2021/07/21 09:07:39;;;;;;;12.00;10.35;;;27.40;70.40;;;;;;5017985;28;20026;-54
2021/07/21 09:10:07;;;;;;;11.13;9.53;;;27.50;70.90;;;;;;5020686;28;20071;-56
2021/07/21 09:12:33;;;;;;;11.35;10.05;;;27.50;70.20;;;;;;5022724;28;20093;-55
2021/07/21 09:15:00;;;;;;;13.30;10.15;;;27.60;70.10;;;;;;5018944;28;20116;-58
2021/07/21 09:17:27;;;;;;;12.65;10.07;;;27.60;69.90;;;;;;5019523;28;20539;-56
2021/07/21 09:19:52;;;;;;;13.63;10.20;;;27.70;70.00;;;;;;5021158;28;20053;-57
2021/07/21 09:22:24;;;;;;;12.07;10.68;;;27.70;69.60;;;;;;5019187;28;20637;-58
2021/07/21 09:25:11;;;;;;;12.48;9.90;;;27.70;69.60;;;;;;5020262;28;20509;-56
2021/07/21 09:27:38;;;;;;;13.98;11.15;;;27.80;69.60;;;;;;5017327;28;20038;-57
2021/07/21 09:30:06;;;;;;;12.23;9.60;;;27.70;69.70;;;;;;5021602;28;20033;-56
2021/07/21 09:32:31;;;;;;;13.23;10.68;;;27.80;69.80;;;;;;5024372;28;20023;-57
2021/07/21 09:34:59;;;;;;;12.00;10.60;;;27.70;69.50;;;;;;5024875;28;20068;-58
2021/07/21 09:37:25;;;;;;;12.13;10.48;;;27.80;69.70;;;;;;5021929;28;20057;-57
2021/07/21 09:39:52;;;;;;;12.65;10.10;;;27.80;69.40;;;;;;5019815;28;20060;-57
2021/07/21 09:42:28;;;;;;;12.18;9.93;;;27.80;69.10;;;;;;5016548;28;20033;-58
2021/07/21 09:44:54;;;;;;;10.98;9.35;;;27.70;69.00;;;;;;5018976;28;20480;-56
2021/07/21 09:47:22;;;;;;;10.35;9.07;;;27.60;69.10;;;;;;5024735;28;20041;-56
2021/07/21 09:49:50;;;;;;;10.02;8.77;;;27.60;68.90;;;;;;5016889;28;20111;-57
2021/07/21 09:52:19;;;;;;;10.20;8.68;;;27.60;69.00;;;;;;5021462;28;20041;-57
2021/07/21 09:55:04;;;;;;;11.30;9.40;;;27.60;69.10;;;;;;5021472;28;20034;-58
2021/07/21 09:57:30;;;;;;;11.35;9.25;;;27.60;69.10;;;;;;5028828;28;20041;-57
2021/07/21 09:59:57;;;;;;;12.35;8.40;;;27.50;69.10;;;;;;5017789;28;20539;-57
2021/07/21 10:02:27;;;;;;;11.15;9.20;;;27.50;68.80;;;;;;5012592;28;20042;-56
2021/07/21 10:04:54;;;;;;;13.13;9.80;;;27.50;68.80;;;;;;5017447;28;20714;-57
2021/07/21 10:10:15;;;;;;;10.73;8.70;;;27.40;68.70;;;;;;5014131;28;20037;-57
2021/07/21 10:12:41;;;;;;;10.02;8.73;;;27.30;68.80;;;;;;5015972;28;20500;-57
2021/07/21 10:15:07;;;;;;;9.80;8.68;;;27.10;68.80;;;;;;5016425;28;20032;-56
2021/07/21 10:17:33;;;;;;;11.80;9.02;;;27.10;68.90;;;;;;5014953;28;20029;-56
2021/07/21 10:19:59;;;;;;;11.45;8.38;;;27.00;69.10;;;;;;5012810;28;20150;-56
2021/07/21 10:22:25;;;;;;;11.73;9.05;;;26.90;69.20;;;;;;5015146;28;20486;-54
2021/07/21 10:24:52;;;;;;;11.43;9.60;;;26.90;69.30;;;;;;5020177;28;20022;-57
2021/07/21 10:27:18;;;;;;;11.48;9.23;;;26.90;69.20;;;;;;5022214;28;20029;-57
2021/07/21 10:29:45;;;;;;;11.70;8.98;;;26.80;69.20;;;;;;5026726;28;20052;-56
2021/07/21 10:32:14;;;;;;;10.98;8.48;;;26.70;69.60;;;;;;5021180;28;20067;-57
2021/07/21 10:34:42;;;;;;;10.32;9.18;;;26.70;70.00;;;;;;5018915;28;20033;-55
2021/07/21 10:37:08;;;;;;;12.35;9.32;;;26.70;70.00;;;;;;5025442;28;20037;-56
2021/07/21 10:39:36;;;;;;;12.10;9.40;;;26.70;70.30;;;;;;5020184;28;20103;-57
2021/07/21 10:42:16;;;;;;;12.20;9.70;;;26.60;70.20;;;;;;5024845;28;20156;-56
2021/07/21 10:44:41;;;;;;;11.35;9.73;;;26.70;70.30;;;;;;5027495;28;20022;-57
2021/07/21 10:47:26;;;;;;;11.52;8.80;;;26.60;70.40;;;;;;5033564;28;20044;-57
2021/07/21 10:49:59;;;;;;;11.25;9.00;;;26.60;70.40;;;;;;5029326;28;20029;-57
2021/07/21 10:52:42;;;;;;;11.73;8.85;;;26.60;70.90;;;;;;5032203;28;20043;-56
2021/07/21 10:55:23;;;;;;;9.75;8.45;;;26.70;70.50;;;;;;5026196;28;20029;-56
2021/07/21 11:00:39;;;;;;;9.43;8.40;;;26.70;70.10;;;;;;5022650;28;20515;-57
2021/07/21 11:03:28;;;;;;;11.43;8.73;;;26.80;70.10;;;;;;5020021;28;20034;-58
2021/07/21 11:06:02;;;;;;;10.27;8.70;;;26.80;69.90;;;;;;5025829;28;20120;-57
2021/07/21 11:08:29;;;;;;;10.85;8.18;;;26.80;70.20;;;;;;5020589;28;20084;-57
2021/07/21 11:10:57;;;;;;;13.95;8.90;;;26.90;70.10;;;;;;5020067;28;20025;-58
2021/07/21 11:13:29;;;;;;;9.95;8.07;;;26.90;69.80;;;;;;5023921;28;20034;-58
2021/07/21 11:15:57;;;;;;;11.45;8.68;;;26.90;69.70;;;;;;5028816;28;20176;-57
2021/07/21 11:18:22;;;;;;;10.95;8.88;;;27.00;69.60;;;;;;5028053;28;21503;-56
2021/07/21 11:21:14;;;;;;;10.95;8.43;;;27.00;69.50;;;;;;5029509;28;20058;-55
2021/07/21 11:23:43;;;;;;;10.52;8.20;;;27.00;69.30;;;;;;5025759;28;20125;-57
2021/07/21 11:26:27;;;;;;;11.13;9.02;;;27.00;69.40;;;;;;5021392;28;20048;-57
2021/07/21 11:28:53;;;;;;;9.85;7.90;;;27.10;69.20;;;;;;5015909;28;20486;-57
2021/07/21 11:32:07;;;;;;;10.90;8.25;;;27.10;69.40;;;;;;5022320;28;20124;-57
2021/07/21 11:34:40;;;;;;;10.00;8.25;;;27.20;69.30;;;;;;5027405;28;20045;-55
2021/07/21 11:37:06;;;;;;;10.38;8.48;;;27.20;69.30;;;;;;5019860;28;20033;-57
2021/07/21 11:39:52;;;;;;;9.68;8.35;;;27.30;69.30;;;;;;5019343;28;20084;-56
2021/07/21 11:42:26;;;;;;;8.65;7.68;;;27.30;68.90;;;;;;5021141;28;20033;-56
2021/07/21 11:45:13;;;;;;;10.85;8.40;;;27.40;68.90;;;;;;5024239;28;20417;-55
2021/07/21 11:47:45;;;;;;;11.20;8.05;;;27.50;68.40;;;;;;5011465;28;20041;-57
2021/07/21 11:50:22;;;;;;;10.15;8.10;;;27.50;68.40;;;;;;5018724;28;20049;-57
2021/07/21 11:53:00;;;;;;;9.55;7.25;;;27.60;68.10;;;;;;5019812;28;20100;-56
2021/07/21 11:55:28;;;;;;;9.43;7.90;;;27.60;67.90;;;;;;5022158;28;20018;-57
2021/07/21 11:57:54;;;;;;;9.43;7.43;;;27.60;67.80;;;;;;5023315;28;20044;-57
2021/07/21 12:00:21;;;;;;;11.90;7.72;;;27.70;67.70;;;;;;5021115;28;20029;-56
2021/07/21 12:02:57;;;;;;;9.70;7.70;;;27.70;67.60;;;;;;5021445;28;20033;-57
2021/07/21 12:05:22;;;;;;;10.48;7.88;;;27.70;67.70;;;;;;5023163;28;20484;-53
2021/07/21 12:07:48;;;;;;;9.13;7.55;;;27.70;67.70;;;;;;5024067;28;20025;-55
2021/07/21 12:10:16;;;;;;;9.18;7.68;;;27.70;67.70;;;;;;5018889;28;20030;-57
2021/07/21 12:12:43;;;;;;;10.25;7.38;;;27.70;67.60;;;;;;5023183;28;20032;-57
2021/07/21 12:15:10;;;;;;;8.43;6.82;;;27.70;67.30;;;;;;5023096;28;20406;-56
2021/07/21 12:17:36;;;;;;;8.60;7.03;;;27.60;67.30;;;;;;5017000;28;21331;-55
2021/07/21 12:20:08;;;;;;;9.02;6.53;;;27.60;67.20;;;;;;5020601;28;20071;-57
2021/07/21 12:22:36;;;;;;;8.85;7.20;;;27.60;67.40;;;;;;5022161;28;20500;-56
2021/07/21 12:25:08;;;;;;;8.75;6.68;;;27.60;67.10;;;;;;5024070;28;20045;-56
2021/07/21 12:27:37;;;;;;;8.48;6.28;;;27.60;67.10;;;;;;5021572;28;20033;-56
2021/07/21 12:30:13;;;;;;;9.32;6.43;;;27.60;66.80;;;;;;5022160;28;20060;-56
2021/07/21 12:32:40;;;;;;;8.57;6.60;;;27.50;66.70;;;;;;5018910;28;20574;-56
2021/07/21 12:35:08;;;;;;;7.50;6.03;;;27.50;66.70;;;;;;5022796;28;20037;-57
2021/07/21 12:37:43;;;;;;;7.55;5.60;;;27.50;66.80;;;;;;5021485;28;20669;-53
2021/07/21 12:40:12;;;;;;;7.57;5.78;;;27.50;66.70;;;;;;5021108;28;20030;-57
2021/07/21 12:42:38;;;;;;;7.90;5.60;;;27.40;66.70;;;;;;5020080;28;20052;-57
2021/07/21 12:45:08;;;;;;;7.05;5.90;;;27.40;66.70;;;;;;5021596;28;20033;-57
2021/07/21 12:47:36;;;;;;;8.20;5.95;;;27.40;67.00;;;;;;5022933;28;20098;-56
2021/07/21 12:50:11;;;;;;;7.35;5.88;;;27.30;66.90;;;;;;5020337;28;20626;-53
2021/07/21 12:52:40;;;;;;;7.22;5.80;;;27.30;67.00;;;;;;5024876;28;20044;-57
2021/07/21 12:55:08;;;;;;;6.53;5.63;;;27.30;67.30;;;;;;5020826;28;20465;-54
2021/07/21 12:57:46;;;;;;;8.40;5.97;;;27.30;67.40;;;;;;5022481;28;20043;-57